Decoded Metar for SARE (RESISTENCIA in ARGENTINA) (IATA:RES) | Meteo·Mobile Aviation Weather
aviador You're here:

SARE Decoded Metar

RESISTENCIA in ARGENTINA
Report Time2018-12-16 10:00:00
UTC Time2018-12-16 10:07:35
Flight Rules vfr VFR
Wind090° at 04 kt
W.Decomp.*RWY 03: 1.3 kt HW 3.8 kt RCW
W.Rank090° ranks 2
Current wind is below 090° avg. (5.1)
Visibility9999 m
Phenomena:N/A
Clouds:N/A
Expected CloudBase > 800 ft AGL from Temp-Dew spread
CeilingNone
Temp24°C (ISA +9)
Dew Point22°C (89% RH)
QNH1014 hPa
Density Alt1,568 ft
Elevation171 ft
Report Wrong Elevation
Raw Report
METAR SARE 161000Z 09004KT CAVOK 24/22 Q1014=

Extra information for SARE:More info

Metar Taf Metar & Taf Last 4 Metars F.Rules Stats Wind Profile Meteogram Temp Stats Airport Information Weather charts Add Link Nearby VenuesMetar ALERT Operation Metar Decoded Social comments